Terminal Aerodrome Forecast
Issued by NWS

Home | Current Version | Previous Version | Text Only | Print | Product List | Glossary On
Versions: 1 2 3 4 5 6 7 8 9 10 11 12 13
000
FTUS42 KTAE 291120
TAFECP
TAF
KECP 291120Z 2912/3012 VRB03KT P6SM FEW030
     FM291800 23010KT P6SM VCTS SCT030CB
      TEMPO 2919/2923 VRB15G25KT 2SM +TSRA BKN030CB
     FM300100 26006KT P6SM SCT030=

USA.gov is the U.S. government's official web portal to all federal, state and local government web resources and services.